Time;durP1;ratioP1;P1;durP2;ratioP2;P2;SDS_P1;SDS_P2;PMS_P1;PMS_P2;Temp;Humidity;BMP_temperature;BMP_pressure;BME280_temperature;BME280_humidity;BME280_pressure;Samples;Min_cycle;Max_cycle;Signal;HPM_P1;HPM_P2
2023/04/07 00:01:01;;;;;;;9.13;5.20;;;;;;;6.05;54.83;100687.50;4954550;28;20038;-82
2023/04/07 00:03:27;;;;;;;9.30;5.47;;;;;;;6.24;54.34;100721.50;4931568;28;20302;-81
2023/04/07 00:05:54;;;;;;;10.77;6.13;;;;;;;6.34;55.29;100719.72;4952922;28;20077;-82
2023/04/07 00:08:21;;;;;;;13.43;6.10;;;;;;;6.15;54.96;100691.06;4947781;28;20051;-82
2023/04/07 00:10:46;;;;;;;12.45;6.68;;;;;;;6.40;55.82;100713.84;4965851;28;20323;-82
2023/04/07 00:13:12;;;;;;;10.98;6.95;;;;;;;6.25;57.21;100704.47;4936674;28;20113;-81
2023/04/07 00:15:38;;;;;;;11.25;7.32;;;;;;;6.19;58.85;100719.22;4971350;28;20058;-81
2023/04/07 00:18:04;;;;;;;13.38;7.70;;;;;;;6.25;59.43;100715.16;4968259;28;20050;-80
2023/04/07 00:20:30;;;;;;;17.00;9.10;;;;;;;6.21;60.49;100703.06;4964427;28;20604;-82
2023/04/07 00:22:55;;;;;;;16.20;9.27;;;;;;;6.09;61.89;100711.16;4930450;28;20047;-81
2023/04/07 00:25:21;;;;;;;15.50;9.07;;;;;;;6.03;62.59;100710.81;4968322;28;20308;-82
2023/04/07 00:27:46;;;;;;;14.40;8.80;;;;;;;5.96;62.43;100704.31;4964220;28;20047;-82
2023/04/07 00:30:16;;;;;;;18.33;9.43;;;;;;;6.01;62.46;100718.94;4950693;28;20695;-81
2023/04/07 00:32:42;;;;;;;19.02;9.32;;;;;;;6.04;62.41;100707.16;4927781;28;20062;-81
2023/04/07 00:35:08;;;;;;;17.20;8.63;;;;;;;6.05;61.76;100704.38;4969067;28;20102;-82
2023/04/07 00:37:33;;;;;;;13.30;8.02;;;;;;;5.97;60.00;100701.53;4962438;28;20127;-83
2023/04/07 00:40:00;;;;;;;16.83;7.85;;;;;;;5.97;59.71;100685.50;4949186;28;20154;-82
2023/04/07 00:42:28;;;;;;;12.55;7.13;;;;;;;6.00;57.64;100711.94;4950024;28;20118;-82
2023/04/07 00:44:54;;;;;;;13.27;6.93;;;;;;;6.18;57.90;100714.00;4965332;28;20051;-80
2023/04/07 00:47:19;;;;;;;13.10;6.70;;;;;;;6.04;55.85;100713.38;4962381;28;20423;-81
2023/04/07 00:49:45;;;;;;;11.50;6.47;;;;;;;6.11;54.92;100714.53;4949857;28;20042;-81
2023/04/07 00:52:12;;;;;;;;;;;;;;;6.16;54.57;100727.50;4949384;28;20047;-83
2023/04/07 00:54:40;;;;;;;16.55;6.63;;;;;;;6.11;54.34;100717.22;4959929;28;19951;-80
2023/04/07 00:57:07;;;;;;;12.00;6.35;;;;;;;6.21;53.54;100719.09;4941351;28;20050;-83
2023/04/07 00:59:35;;;;;;;10.75;6.13;;;;;;;6.15;53.38;100708.94;4967994;28;20038;-82
2023/04/07 01:02:13;;;;;;;11.50;5.70;;;;;;;6.12;53.26;100723.38;4965780;28;20552;-81
2023/04/07 01:04:50;;;;;;;9.85;5.90;;;;;;;6.11;52.97;100719.88;4951098;28;20046;-81
2023/04/07 01:07:23;;;;;;;10.48;6.07;;;;;;;6.16;53.03;100715.94;4963351;28;20031;-81
2023/04/07 01:10:02;;;;;;;11.38;6.05;;;;;;;6.23;53.18;100727.81;4952025;28;20043;-82
2023/04/07 01:12:39;;;;;;;10.10;5.93;;;;;;;6.29;53.04;100719.25;4946071;28;20061;-81
2023/04/07 01:15:10;;;;;;;11.07;5.95;;;;;;;6.26;53.51;100720.38;4936577;28;20075;-81
2023/04/07 01:17:36;;;;;;;10.55;6.50;;;;;;;6.11;53.71;100711.00;4945855;28;20079;-81
2023/04/07 01:20:06;;;;;;;9.43;6.18;;;;;;;6.13;54.06;100711.72;4919345;28;20039;-80
2023/04/07 01:22:35;;;;;;;11.15;6.40;;;;;;;6.23;53.46;100719.81;4967416;28;20043;-82
2023/04/07 01:25:55;;;;;;;9.80;6.10;;;;;;;6.15;53.75;100720.44;4924412;28;20051;-82
2023/04/07 01:28:51;;;;;;;10.85;6.18;;;;;;;6.12;54.08;100720.72;4925248;29;20162;-80
2023/04/07 01:31:16;;;;;;;9.27;5.68;;;;;;;6.15;53.56;100719.59;4968746;28;20046;-81
2023/04/07 01:33:43;;;;;;;11.27;6.25;;;;;;;6.10;53.22;100715.50;4952079;28;20441;-81
2023/04/07 01:36:08;;;;;;;10.68;6.03;;;;;;;6.17;53.39;100717.66;4954405;28;20228;-80
2023/04/07 01:38:34;;;;;;;8.57;5.78;;;;;;;6.15;53.22;100712.44;4935569;28;20086;-80
2023/04/07 01:40:59;;;;;;;11.15;6.13;;;;;;;5.99;53.44;100715.56;4938731;28;20510;-81
2023/04/07 01:43:27;;;;;;;12.77;5.90;;;;;;;6.02;53.53;100715.31;4920609;28;20057;-80
2023/04/07 01:45:53;;;;;;;12.82;6.65;;;;;;;5.93;53.46;100716.91;4935967;28;20354;-81
2023/04/07 01:48:20;;;;;;;9.95;6.40;;;;;;;6.04;53.73;100729.38;4933889;28;20046;-82
2023/04/07 01:50:47;;;;;;;10.65;6.15;;;;;;;6.06;53.72;100713.22;4965925;28;20046;-83
2023/04/07 01:53:15;;;;;;;12.65;6.50;;;;;;;6.05;53.19;100727.56;4920896;28;20471;-81
2023/04/07 01:55:42;;;;;;;11.52;6.30;;;;;;;6.09;53.63;100713.81;4952389;28;20138;-83
2023/04/07 01:58:09;;;;;;;11.73;6.30;;;;;;;6.10;53.23;100720.84;4946949;28;20045;-82
2023/04/07 02:00:34;;;;;;;12.23;6.65;;;;;;;5.98;53.32;100705.88;4968371;28;20038;-80
2023/04/07 02:03:06;;;;;;;10.77;6.57;;;;;;;6.07;53.44;100701.59;4932692;28;20045;-81
2023/04/07 02:05:32;;;;;;;12.30;7.00;;;;;;;6.06;53.36;100722.09;4969921;28;20057;-81
2023/04/07 02:08:01;;;;;;;13.50;6.88;;;;;;;6.00;53.26;100719.94;4933582;28;20367;-81
2023/04/07 02:10:28;;;;;;;12.40;7.07;;;;;;;5.95;53.36;100727.50;4937336;28;20433;-80
2023/04/07 02:12:54;;;;;;;12.95;6.80;;;;;;;6.05;52.99;100720.38;4935490;28;20047;-79
2023/04/07 02:15:20;;;;;;;12.00;6.65;;;;;;;5.86;53.03;100693.53;4922430;28;20046;-80
2023/04/07 02:17:49;;;;;;;13.68;7.28;;;;;;;6.11;52.65;100727.00;4934929;28;20071;-80
2023/04/07 02:20:16;;;;;;;13.10;6.95;;;;;;;6.05;53.14;100725.72;4950911;28;20380;-80
2023/04/07 02:22:43;;;;;;;13.55;7.45;;;;;;;5.87;52.81;100706.72;4949859;28;20058;-81
2023/04/07 02:25:22;;;;;;;13.25;7.38;;;;;;;5.98;53.31;100715.69;4939399;28;20066;-81
2023/04/07 02:27:48;;;;;;;13.25;7.50;;;;;;;6.07;52.72;100721.09;4950099;28;20185;-80
2023/04/07 02:30:16;;;;;;;14.43;7.65;;;;;;;6.04;52.63;100718.72;4969164;28;20454;-81
2023/04/07 02:32:45;;;;;;;15.18;7.50;;;;;;;5.83;52.86;100704.44;4947323;28;20039;-79
2023/04/07 02:35:11;;;;;;;14.13;7.60;;;;;;;5.98;52.67;100732.56;4939030;28;20042;-80
2023/04/07 02:37:39;;;;;;;13.85;7.43;;;;;;;5.75;53.15;100701.59;4943515;28;20053;-81
2023/04/07 02:40:05;;;;;;;12.50;7.68;;;;;;;5.95;53.29;100739.97;4938685;28;20114;-80
2023/04/07 02:42:31;;;;;;;15.10;7.68;;;;;;;5.90;52.95;100727.00;4923445;28;20043;-80
2023/04/07 02:44:58;;;;;;;13.98;7.45;;;;;;;6.00;52.90;100735.94;4961418;28;20039;-81
2023/04/07 02:47:24;;;;;;;13.55;7.47;;;;;;;5.79;53.22;100737.72;4935841;28;20047;-80
2023/04/07 02:49:50;;;;;;;13.55;7.45;;;;;;;5.87;53.30;100743.25;4956248;28;20093;-82
2023/04/07 02:52:16;;;;;;;14.55;7.25;;;;;;;5.86;53.73;100757.56;4923328;28;20089;-80
2023/04/07 02:54:41;;;;;;;10.70;6.93;;;;;;;5.63;54.53;100717.66;4956247;28;20051;-80
2023/04/07 02:57:07;;;;;;;13.43;7.30;;;;;;;5.75;54.13;100744.28;4939774;28;20059;-81
2023/04/07 02:59:34;;;;;;;13.60;8.07;;;;;;;5.79;54.10;100743.06;4925884;28;20078;-81
2023/04/07 03:01:59;;;;;;;14.18;7.53;;;;;;;5.80;54.38;100752.75;4924418;28;20050;-81
2023/04/07 03:04:27;;;;;;;12.93;7.60;;;;;;;5.87;54.88;100760.09;4942872;28;20082;-80
2023/04/07 03:06:52;;;;;;;13.80;7.63;;;;;;;5.70;55.28;100752.66;4957430;28;20317;-81
2023/04/07 03:09:19;;;;;;;13.20;7.80;;;;;;;5.70;55.87;100761.50;4929997;28;20576;-81
2023/04/07 03:11:44;;;;;;;15.82;7.97;;;;;;;5.71;56.04;100760.56;4956743;28;20294;-80
2023/04/07 03:14:10;;;;;;;17.33;7.30;;;;;;;5.60;56.32;100744.59;4958294;28;20090;-82
2023/04/07 03:16:36;;;;;;;15.07;7.97;;;;;;;5.64;56.57;100761.16;4935335;28;20295;-80
2023/04/07 03:19:03;;;;;;;14.70;8.30;;;;;;;5.66;56.12;100759.22;4939739;28;20488;-81
2023/04/07 03:21:30;;;;;;;11.68;7.57;;;;;;;5.52;56.12;100749.69;4948571;28;20109;-80
2023/04/07 03:23:57;;;;;;;12.95;7.78;;;;;;;5.53;55.98;100767.41;4959560;28;20049;-79
2023/04/07 03:26:22;;;;;;;;;;;;;;;5.46;55.53;100768.88;4929605;28;20491;-80
2023/04/07 03:28:48;;;;;;;15.82;8.15;;;;;;;5.41;56.02;100757.75;4938767;28;19922;-80
2023/04/07 03:31:13;;;;;;;15.77;7.93;;;;;;;5.39;55.45;100768.53;4946356;28;20424;-80
2023/04/07 03:33:39;;;;;;;14.05;8.27;;;;;;;5.48;54.96;100774.94;4928075;28;20302;-80
2023/04/07 03:36:05;;;;;;;14.60;8.50;;;;;;;5.43;54.25;100759.31;4966932;28;20090;-82
2023/04/07 03:38:30;;;;;;;14.48;8.25;;;;;;;5.60;53.68;100779.25;4963354;28;20302;-81
2023/04/07 03:40:57;;;;;;;16.17;8.53;;;;;;;5.69;53.34;100772.31;4965352;28;20045;-81
2023/04/07 03:43:26;;;;;;;15.40;8.80;;;;;;;5.72;52.70;100788.06;4944510;28;20294;-81
2023/04/07 03:45:54;;;;;;;17.90;8.75;;;;;;;5.77;52.63;100785.03;4943645;28;20043;-80
2023/04/07 03:48:20;;;;;;;15.32;9.00;;;;;;;5.63;52.36;100778.16;4947200;28;20118;-81
2023/04/07 03:50:46;;;;;;;17.80;9.40;;;;;;;5.85;51.76;100794.09;4943321;28;20156;-80
2023/04/07 03:53:15;;;;;;;15.90;9.10;;;;;;;5.76;51.54;100788.66;4962528;28;20055;-81
2023/04/07 03:55:42;;;;;;;15.70;8.18;;;;;;;5.87;51.36;100780.59;4941372;28;20047;-81
2023/04/07 03:58:10;;;;;;;15.43;8.98;;;;;;;5.81;51.44;100795.31;4941649;28;21036;-82
2023/04/07 04:00:36;;;;;;;16.95;9.25;;;;;;;5.74;51.35;100778.13;4943311;28;20035;-80
2023/04/07 04:03:01;;;;;;;15.02;8.75;;;;;;;5.91;50.93;100803.41;4961835;28;20233;-79
2023/04/07 04:05:27;;;;;;;15.48;9.50;;;;;;;5.90;50.84;100797.22;4946167;28;20046;-80
2023/04/07 04:07:53;;;;;;;17.70;9.73;;;;;;;5.96;51.13;100795.88;4963693;28;20449;-80
2023/04/07 04:10:19;;;;;;;15.10;9.05;;;;;;;6.11;50.94;100813.31;4935877;28;20055;-80
2023/04/07 04:12:45;;;;;;;;;;;;;;;6.06;50.96;100812.84;4946752;28;20170;-81
2023/04/07 04:15:11;;;;;;;20.10;10.27;;;;;;;6.22;50.69;100806.19;4958931;28;19924;-79
2023/04/07 04:17:37;;;;;;;18.47;9.33;;;;;;;6.17;50.25;100808.41;4971799;28;20054;-79
2023/04/07 04:20:02;;;;;;;20.30;9.88;;;;;;;6.05;50.63;100808.47;4979115;28;20294;-81
2023/04/07 04:22:28;;;;;;;19.50;10.02;;;;;;;6.11;50.32;100815.97;4982026;28;20077;-81
2023/04/07 04:24:53;;;;;;;17.95;9.52;;;;;;;6.20;50.34;100808.16;4933555;28;20138;-80
2023/04/07 04:27:20;;;;;;;18.77;9.75;;;;;;;6.25;50.03;100817.50;4949030;28;20133;-81
2023/04/07 04:29:45;;;;;;;19.60;10.07;;;;;;;6.29;50.20;100823.41;4967019;28;20081;-82
2023/04/07 04:32:11;;;;;;;22.48;12.55;;;;;;;6.26;50.22;100834.34;4929927;28;20133;-81
2023/04/07 04:34:40;;;;;;;22.55;10.82;;;;;;;6.39;50.11;100824.34;4946639;28;20141;-82
2023/04/07 04:37:06;;;;;;;22.13;10.95;;;;;;;6.38;49.73;100838.66;4932129;28;20912;-83
2023/04/07 04:39:35;;;;;;;21.15;12.70;;;;;;;6.40;50.11;100833.19;4948644;28;20047;-83
2023/04/07 04:42:00;;;;;;;21.90;10.93;;;;;;;6.47;50.74;100837.03;4939069;28;20035;-82
2023/04/07 04:44:26;;;;;;;19.85;10.43;;;;;;;6.28;49.51;100837.75;4933576;28;20047;-82
2023/04/07 04:46:56;;;;;;;17.45;10.48;;;;;;;6.28;49.15;100821.72;4964482;28;20201;-83
2023/04/07 04:49:22;;;;;;;18.42;10.02;;;;;;;6.37;49.26;100836.97;4947738;28;20145;-83
2023/04/07 04:51:48;;;;;;;15.70;9.82;;;;;;;6.37;49.19;100838.75;4965372;28;20422;-82
2023/04/07 04:54:13;;;;;;;18.75;10.18;;;;;;;6.38;48.80;100841.31;4945467;28;20497;-83
2023/04/07 04:56:41;;;;;;;19.13;10.77;;;;;;;6.34;48.80;100815.84;4952915;28;20463;-82
2023/04/07 04:59:21;;;;;;;22.65;10.95;;;;;;;6.45;49.29;100821.13;4969993;28;20043;-82
2023/04/07 05:01:47;;;;;;;21.40;11.60;;;;;;;6.66;48.32;100847.00;4955021;28;20231;-82
2023/04/07 05:04:15;;;;;;;29.73;11.57;;;;;;;6.78;48.39;100853.94;4955271;28;20110;-82
2023/04/07 05:06:41;;;;;;;18.27;10.90;;;;;;;6.68;48.93;100835.19;4967605;28;20047;-83
2023/04/07 05:09:12;;;;;;;24.42;12.25;;;;;;;6.90;48.03;100850.22;4965700;28;20055;-82
2023/04/07 05:11:37;;;;;;;22.77;11.90;;;;;;;6.93;48.09;100849.97;4954139;28;20075;-83
2023/04/07 05:14:04;;;;;;;21.20;11.20;;;;;;;7.08;47.35;100849.63;4955531;28;20047;-82
2023/04/07 05:16:31;;;;;;;20.10;11.32;;;;;;;7.08;47.27;100846.94;4970667;28;20506;-83
2023/04/07 05:18:56;;;;;;;22.85;11.23;;;;;;;7.06;47.28;100843.56;4954189;28;20157;-84
2023/04/07 05:21:22;;;;;;;;;;;;;;;7.26;47.07;100860.50;4934666;28;20082;-84
2023/04/07 05:23:49;;;;;;;23.42;11.40;;;;;;;7.36;46.96;100858.75;4955916;28;19918;-83
2023/04/07 05:26:17;;;;;;;21.10;11.40;;;;;;;7.38;46.83;100862.97;4952061;28;20534;-82
2023/04/07 05:28:44;;;;;;;20.67;11.88;;;;;;;7.56;46.54;100867.66;4963338;28;20073;-81
2023/04/07 05:31:14;;;;;;;24.25;11.55;;;;;;;7.44;46.18;100842.00;4951454;28;20051;-85
2023/04/07 05:33:41;;;;;;;18.67;11.30;;;;;;;7.82;45.63;100865.34;4958863;28;20128;-86
2023/04/07 05:36:07;;;;;;;25.55;11.98;;;;;;;8.06;45.15;100869.47;4984732;28;20065;-85
2023/04/07 05:38:34;;;;;;;20.00;11.07;;;;;;;8.35;44.96;100870.31;4955703;28;20042;-88
2023/04/07 05:41:00;;;;;;;22.42;11.20;;;;;;;8.70;43.73;100868.91;4964148;28;20418;-86
2023/04/07 05:43:29;;;;;;;23.55;11.02;;;;;;;8.78;43.25;100860.13;4975802;28;20046;-85
2023/04/07 05:45:54;;;;;;;24.08;12.05;;;;;;;8.98;42.60;100856.41;4962334;28;20047;-86
2023/04/07 05:48:22;;;;;;;22.85;11.57;;;;;;;9.34;42.87;100871.81;4960342;28;20067;-87
2023/04/07 05:50:48;;;;;;;23.30;12.23;;;;;;;9.56;41.64;100865.25;4983033;28;20114;-87
2023/04/07 05:53:13;;;;;;;17.60;10.50;;;;;;;9.16;41.24;100847.63;4975942;28;20043;-84
2023/04/07 05:55:42;;;;;;;17.77;10.80;;;;;;;8.87;41.93;100864.63;4963509;28;20134;-84
2023/04/07 05:58:10;;;;;;;17.90;10.52;;;;;;;8.87;42.30;100870.88;4953287;28;20192;-85
2023/04/07 06:00:36;;;;;;;19.77;10.68;;;;;;;8.90;42.36;100861.69;4948854;28;20047;-88
2023/04/07 06:03:02;;;;;;;21.50;11.05;;;;;;;9.02;42.07;100871.22;4939235;28;20097;-88
2023/04/07 06:05:30;;;;;;;18.80;10.98;;;;;;;8.59;42.39;100872.59;4950008;28;20053;-87
2023/04/07 06:07:58;;;;;;;20.75;10.50;;;;;;;8.55;42.66;100886.44;4934689;28;20395;-86
2023/04/07 06:10:25;;;;;;;20.50;10.82;;;;;;;8.63;43.49;100887.38;4957239;28;20042;-86
2023/04/07 06:12:52;;;;;;;16.88;10.90;;;;;;;8.95;43.42;100886.22;4942996;28;20051;-85
2023/04/07 06:15:18;;;;;;;23.63;11.20;;;;;;;9.14;42.49;100888.00;4974239;28;20092;-86
2023/04/07 06:17:44;;;;;;;20.08;10.68;;;;;;;9.35;42.36;100890.47;4973169;28;20046;-87
2023/04/07 06:20:11;;;;;;;18.42;10.77;;;;;;;9.43;41.30;100882.50;4932287;28;20368;-86
2023/04/07 06:22:45;;;;;;;16.92;10.63;;;;;;;9.55;41.20;100885.00;4973285;28;20042;-85
2023/04/07 06:25:13;;;;;;;19.90;11.40;;;;;;;9.58;41.11;100890.09;4978057;28;20038;-87
2023/04/07 06:27:39;;;;;;;19.98;11.23;;;;;;;10.00;40.57;100889.56;4942197;28;20053;-87
2023/04/07 06:30:07;;;;;;;21.27;11.10;;;;;;;10.48;39.50;100867.72;4956897;28;20042;-84
2023/04/07 06:32:33;;;;;;;19.92;10.43;;;;;;;11.08;38.81;100877.72;4940935;29;20042;-83
2023/04/07 06:34:59;;;;;;;19.52;11.02;;;;;;;11.38;38.09;100880.94;4948740;28;20061;-82
2023/04/07 06:37:25;;;;;;;;;;;;;;;11.62;36.96;100889.09;4948805;28;20117;-83
2023/04/07 06:39:51;;;;;;;15.90;10.30;;;;;;;12.10;36.20;100902.06;4969285;28;19914;-82
2023/04/07 06:42:18;;;;;;;16.30;10.55;;;;;;;12.09;35.86;100890.47;4967917;28;20244;-83
2023/04/07 06:44:43;;;;;;;17.30;10.30;;;;;;;12.57;34.98;100893.38;4954756;28;20047;-82
2023/04/07 06:47:09;;;;;;;20.38;10.95;;;;;;;12.21;35.17;100896.38;4952224;28;20160;-82
2023/04/07 06:49:34;;;;;;;19.80;10.38;;;;;;;12.01;35.34;100887.72;4952266;28;20050;-82
2023/04/07 06:52:00;;;;;;;20.20;11.13;;;;;;;12.18;35.29;100904.81;4969010;28;20053;-82
2023/04/07 06:54:26;;;;;;;17.92;10.48;;;;;;;11.59;35.67;100902.91;4949632;28;20054;-81
2023/04/07 06:56:52;;;;;;;16.25;10.30;;;;;;;11.98;35.67;100888.91;4953190;28;20058;-83
2023/04/07 06:59:17;;;;;;;19.02;10.70;;;;;;;11.70;35.03;100892.84;4934223;28;20058;-84
2023/04/07 07:01:44;;;;;;;16.45;10.38;;;;;;;11.80;35.62;100901.63;4969754;28;20145;-83
2023/04/07 07:04:10;;;;;;;23.45;10.80;;;;;;;12.28;35.12;100896.56;4961456;28;20038;-81
2023/04/07 07:06:36;;;;;;;15.05;10.10;;;;;;;12.42;33.39;100907.53;4938484;28;20034;-86
2023/04/07 07:09:02;;;;;;;17.92;10.45;;;;;;;13.12;32.90;100908.84;4970053;28;20491;-82
2023/04/07 07:11:27;;;;;;;20.17;10.10;;;;;;;13.58;32.43;100903.69;4964060;28;20129;-84
2023/04/07 07:13:53;;;;;;;16.45;10.02;;;;;;;14.07;31.46;100906.16;4957075;28;20042;-83
2023/04/07 07:16:22;;;;;;;19.50;11.93;;;;;;;14.21;30.93;100914.53;4935573;28;20442;-85
2023/04/07 07:18:48;;;;;;;15.63;10.18;;;;;;;14.36;30.19;100912.75;4953603;28;20039;-86
2023/04/07 07:21:15;;;;;;;29.23;10.80;;;;;;;14.42;29.90;100917.44;4963246;28;20040;-84
2023/04/07 07:23:40;;;;;;;16.33;10.00;;;;;;;14.67;29.07;100923.53;4942151;28;20074;-80
2023/04/07 07:26:06;;;;;;;16.85;10.00;;;;;;;15.20;28.94;100920.88;4967248;28;20105;-82
2023/04/07 07:28:33;;;;;;;13.43;9.52;;;;;;;15.48;27.63;100912.09;4971082;28;20041;-81
2023/04/07 07:30:58;;;;;;;24.50;12.90;;;;;;;16.43;27.62;100922.03;4938011;28;20132;-82
2023/04/07 07:33:24;;;;;;;;;;;;;;;15.93;26.63;100921.06;4953428;28;20492;-81
2023/04/07 07:35:51;;;;;;;;;;;;;;;16.01;27.08;100912.81;4970574;28;20343;-83
2023/04/07 07:38:17;;;;;;;15.88;9.68;;;;;;;15.77;27.29;100917.50;4963965;28;20366;-85
2023/04/07 07:40:42;;;;;;;;;;;;;;;15.15;27.76;100939.53;4956656;28;20051;-82
2023/04/07 07:43:08;;;;;;;15.15;9.93;;;;;;;15.17;27.87;100930.19;4970084;28;19918;-83
2023/04/07 07:45:33;;;;;;;20.25;9.90;;;;;;;15.73;27.26;100921.66;4970461;28;20110;-82
2023/04/07 07:47:59;;;;;;;;;;;;;;;15.83;26.78;100929.50;4966723;28;20043;-83
2023/04/07 07:50:25;;;;;;;24.02;10.05;;;;;;;15.54;27.04;100928.44;4942335;28;20074;-85
2023/04/07 07:52:52;;;;;;;20.02;10.68;;;;;;;15.49;27.05;100925.44;4967804;28;20053;-81
2023/04/07 07:55:17;;;;;;;;;;;;;;;15.70;27.15;100932.84;4950894;28;20108;-79
2023/04/07 07:57:44;;;;;;;14.15;9.68;;;;;;;15.69;26.89;100928.44;4946257;28;19922;-82
2023/04/07 08:00:10;;;;;;;18.27;10.75;;;;;;;15.85;26.89;100923.88;4961981;28;20042;-84
2023/04/07 08:02:37;;;;;;;19.15;11.00;;;;;;;16.42;26.45;100931.22;4918533;28;20106;-83
2023/04/07 08:05:05;;;;;;;16.38;10.38;;;;;;;16.86;25.71;100933.75;4949547;28;20039;-83
2023/04/07 08:07:32;;;;;;;20.90;10.10;;;;;;;16.80;25.16;100934.53;4949596;28;20062;-83
2023/04/07 08:09:57;;;;;;;15.82;9.82;;;;;;;16.59;25.55;100931.78;4945063;28;20050;-82
2023/04/07 08:12:23;;;;;;;;;;;;;;;16.92;25.65;100937.56;4978596;28;20134;-82
2023/04/07 08:14:49;;;;;;;;;;;;;;;16.60;25.41;100933.47;4936094;29;19985;-84
2023/04/07 08:17:14;;;;;;;;;;;;;;;16.62;25.28;100937.69;4951712;28;20476;-83
2023/04/07 08:19:41;;;;;;;21.27;9.65;;;;;;;15.97;25.62;100938.63;4960891;28;19913;-82
2023/04/07 08:22:10;;;;;;;18.95;9.98;;;;;;;16.03;25.65;100918.88;4967860;28;20521;-85
2023/04/07 08:24:37;;;;;;;19.05;11.07;;;;;;;15.94;26.44;100941.72;4966993;28;20058;-84
2023/04/07 08:27:03;;;;;;;15.13;9.40;;;;;;;16.22;25.43;100931.84;4970846;28;20058;-83
2023/04/07 08:29:32;;;;;;;15.27;9.68;;;;;;;15.61;25.67;100945.63;4965907;28;20101;-83
2023/04/07 08:31:59;;;;;;;15.20;10.07;;;;;;;15.94;25.76;100939.00;4956566;28;20078;-83
2023/04/07 08:34:24;;;;;;;22.85;10.00;;;;;;;15.52;26.64;100935.94;4966812;28;20397;-83
2023/04/07 08:36:49;;;;;;;;;;;;;;;15.83;26.08;100945.75;4954826;28;20050;-82
2023/04/07 08:39:16;;;;;;;16.98;10.77;;;;;;;15.72;26.05;100932.69;4941221;29;19914;-83
2023/04/07 08:41:44;;;;;;;18.98;10.43;;;;;;;15.78;26.61;100940.91;4971458;28;20049;-84
2023/04/07 08:44:10;;;;;;;17.95;10.40;;;;;;;15.83;26.04;100938.47;4932421;28;20101;-83
2023/04/07 08:46:37;;;;;;;14.77;9.85;;;;;;;15.72;26.30;100947.06;4974242;28;20046;-83
2023/04/07 08:49:03;;;;;;;14.50;9.93;;;;;;;15.81;26.75;100951.34;4953686;28;20407;-84
2023/04/07 08:51:32;;;;;;;12.32;8.82;;;;;;;14.56;28.00;100940.19;4955630;28;20149;-82
2023/04/07 08:54:12;;;;;;;16.30;9.77;;;;;;;15.06;27.72;100951.47;4951214;28;20484;-84
2023/04/07 08:56:40;;;;;;;24.33;10.80;;;;;;;14.98;27.68;100955.06;4935000;28;20468;-82
2023/04/07 08:59:07;;;;;;;20.42;10.00;;;;;;;14.72;27.62;100956.28;4949927;28;20039;-83
2023/04/07 09:01:34;;;;;;;21.67;10.20;;;;;;;14.42;28.75;100958.03;4945361;28;20038;-83
2023/04/07 09:04:02;;;;;;;15.85;10.35;;;;;;;14.19;28.76;100944.47;4933990;28;20372;-83
2023/04/07 09:06:32;;;;;;;16.27;10.05;;;;;;;13.88;29.03;100963.34;4944981;28;20089;-83
2023/04/07 09:08:59;;;;;;;13.32;9.65;;;;;;;13.63;29.71;100966.16;4944258;28;20050;-83
2023/04/07 09:11:26;;;;;;;16.73;9.90;;;;;;;13.80;29.28;100966.09;4955358;28;20077;-83
2023/04/07 09:13:52;;;;;;;20.38;10.15;;;;;;;13.79;29.62;100973.38;4930574;29;20198;-83
2023/04/07 09:16:17;;;;;;;18.30;10.10;;;;;;;14.28;28.75;100972.28;4938102;28;20062;-83
2023/04/07 09:18:43;;;;;;;21.42;9.55;;;;;;;14.09;28.99;100951.94;4932201;29;20121;-83
2023/04/07 09:21:10;;;;;;;;;;;;;;;13.97;29.22;100983.91;4954237;28;20050;-83
2023/04/07 09:23:37;;;;;;;19.90;9.20;;;;;;;13.85;29.41;100979.91;4970647;28;19918;-83
2023/04/07 09:26:23;;;;;;;18.70;10.55;;;;;;;13.76;30.00;100975.56;4953749;28;20465;-83
2023/04/07 09:28:53;;;;;;;27.27;10.23;;;;;;;14.24;29.76;100970.97;4970249;28;20134;-84
2023/04/07 09:31:22;;;;;;;15.85;9.80;;;;;;;14.44;29.32;100980.28;4939814;28;20181;-82
2023/04/07 09:33:52;;;;;;;19.27;9.60;;;;;;;14.84;29.00;100974.81;4934946;28;20039;-84
2023/04/07 09:36:18;;;;;;;16.65;9.90;;;;;;;15.29;28.34;100979.34;4935945;28;20076;-86
2023/04/07 09:38:44;;;;;;;;;;;;;;;15.83;27.63;100971.00;4969774;28;20056;-83
2023/04/07 09:41:10;;;;;;;17.33;10.73;;;;;;;15.86;28.02;100958.09;4951545;28;19914;-83
2023/04/07 09:43:38;;;;;;;18.83;10.25;;;;;;;16.33;27.31;100973.06;4950631;28;20062;-84
2023/04/07 09:46:13;;;;;;;15.02;9.90;;;;;;;16.65;26.64;100980.72;4942714;28;20126;-84
2023/04/07 09:48:41;;;;;;;16.08;9.88;;;;;;;17.38;25.61;100979.72;4950488;28;20049;-84
2023/04/07 09:51:11;;;;;;;17.52;9.52;;;;;;;19.07;24.11;100974.53;4938436;28;20511;-83
2023/04/07 09:53:47;;;;;;;14.68;9.65;;;;;;;21.16;21.65;100972.47;4969905;28;20704;-84
2023/04/07 09:56:15;;;;;;;16.98;9.25;;;;;;;21.78;20.18;100979.94;4974916;28;20050;-83
2023/04/07 09:58:41;;;;;;;14.25;9.07;;;;;;;22.30;20.01;100977.63;4950473;28;20073;-85
2023/04/07 10:01:08;;;;;;;14.70;9.27;;;;;;;21.59;20.55;100976.34;4939572;28;20093;-83
2023/04/07 10:03:36;;;;;;;16.20;10.38;;;;;;;21.00;21.28;100968.41;4936603;29;20130;-82
2023/04/07 10:06:02;;;;;;;12.27;8.95;;;;;;;20.81;21.64;100969.38;4953858;28;20050;-84
2023/04/07 10:08:29;;;;;;;20.33;9.45;;;;;;;21.09;21.58;100966.22;4950082;29;20471;-82
2023/04/07 10:10:56;;;;;;;17.33;10.35;;;;;;;20.44;21.91;100963.72;4951311;28;20043;-82
2023/04/07 10:13:25;;;;;;;14.82;9.18;;;;;;;20.33;22.12;100972.59;4935454;28;20810;-83
2023/04/07 10:15:51;;;;;;;13.85;9.50;;;;;;;20.43;22.27;100979.25;4951533;28;20038;-82
2023/04/07 10:18:17;;;;;;;17.30;9.55;;;;;;;20.32;22.64;100977.25;4938285;28;20114;-83
2023/04/07 10:20:43;;;;;;;20.80;10.52;;;;;;;20.54;22.65;100979.63;4955025;28;20078;-83
2023/04/07 10:23:50;;;;;;;15.52;10.23;;;;;;;20.67;22.48;100982.31;4953037;28;20450;-83
2023/04/07 10:26:18;;;;;;;17.55;9.68;;;;;;;20.68;22.17;100975.78;4952922;28;20057;-83
2023/04/07 10:28:45;;;;;;;13.30;9.70;;;;;;;20.96;21.84;100980.03;4950935;28;20137;-83
2023/04/07 10:31:11;;;;;;;16.00;9.93;;;;;;;19.96;22.80;100980.53;4950485;28;20053;-84
2023/04/07 10:33:46;;;;;;;16.75;10.30;;;;;;;19.42;23.86;100977.06;4950801;28;20434;-84
2023/04/07 10:36:13;;;;;;;18.75;10.88;;;;;;;20.00;23.23;100971.69;4951250;28;20042;-83
2023/04/07 10:38:41;;;;;;;18.10;10.68;;;;;;;19.57;23.62;100961.31;4951890;28;20043;-84
2023/04/07 10:41:43;;;;;;;14.68;8.95;;;;;;;19.49;23.66;100983.34;4968585;28;20034;-84
2023/04/07 10:44:09;;;;;;;17.00;9.88;;;;;;;19.44;23.95;100974.94;4920844;28;20054;-85
2023/04/07 10:46:45;;;;;;;14.45;9.57;;;;;;;17.96;25.14;100983.03;4954395;28;20046;-83
2023/04/07 10:49:12;;;;;;;14.20;10.25;;;;;;;17.65;25.88;100983.44;4948144;28;20055;-82
2023/04/07 10:51:38;;;;;;;14.73;10.25;;;;;;;18.09;25.08;100982.25;4953577;28;20145;-82
2023/04/07 10:54:40;;;;;;;20.67;10.18;;;;;;;17.51;26.32;100986.09;4965516;28;20106;-83
2023/04/07 10:57:13;;;;;;;15.85;10.75;;;;;;;16.96;26.81;100987.75;4952816;28;20049;-85
2023/04/07 10:59:45;;;;;;;15.60;10.23;;;;;;;17.09;26.72;100979.72;4946115;29;20039;-83
2023/04/07 11:02:17;;;;;;;14.45;9.77;;;;;;;17.12;27.15;100980.38;4964149;28;20051;-84
2023/04/07 11:04:46;;;;;;;13.80;9.65;;;;;;;16.76;27.30;100981.22;4963535;28;20113;-84
2023/04/07 11:07:13;;;;;;;18.58;9.68;;;;;;;16.74;27.44;100962.44;4970315;28;20452;-84
2023/04/07 11:09:39;;;;;;;;;;;;;;;16.83;27.66;100987.59;4929828;29;20149;-82
2023/04/07 11:12:05;;;;;;;20.02;9.40;;;;;;;17.02;27.45;100989.69;4963426;28;19922;-84
2023/04/07 11:14:32;;;;;;;17.85;10.18;;;;;;;16.93;27.42;100960.97;4941401;28;20039;-84
2023/04/07 11:17:00;;;;;;;17.23;10.20;;;;;;;17.25;26.78;100975.00;4943982;28;20050;-82
2023/04/07 11:19:26;;;;;;;17.80;9.95;;;;;;;17.51;26.62;100968.91;4953072;28;20054;-83
2023/04/07 11:22:13;;;;;;;;;;;;;;;17.45;26.72;100984.16;4953401;28;20094;-83
2023/04/07 11:24:39;;;;;;;16.77;9.27;;;;;;;17.74;26.28;100974.09;4961851;28;19926;-84
2023/04/07 11:27:05;;;;;;;;;;;;;;;18.27;25.44;100984.44;4953284;28;20462;-84